Deerfield, MI (49238)

4:15 PM EDT on September 02, 2014 (GMT -0400)
South of Britton, MI | Change Station
CLOSE
Current Station
Personal Weather Station
Location: Britton, MI
Elevation: 673 ft
Nearby Weather Stations

Elev 673 ft 41.96 °N, 83.82 °W | Updated 8 seconds ago

Mostly Cloudy
Mostly Cloudy
81.5 °F
Feels Like 85 °F
N
1.8
Wind Variable Wind from WSW
Gusts 5.6 mph

Today
High -- | Low -- °F
--% Chance of Precip.
Yesterday
High -- | Low -- °F
Precip. -- in
7:01 AM 8:06 PM
First Quarter, 54% visible
Pressure 29.89 in
Visibility 4.0 miles
Clouds Scattered Clouds 1500 ft
Mostly Cloudy 6500 ft
Overcast 8000 ft
Heat Index 85 °F
Dew Point 70 °F
Humidity 68%
Rainfall 0.49 in
Snow Depth Not available.
UV 2 out of 12
Pollen 3.50 out of 12
Ozone Good
PM2.5 Good
Flu Activity Not available.
METAR KDUH 021954Z AUTO 00000KT 4SM -RA SCT015 BKN065 OVC080 23/17 A2989 RMK AO2

More Conditions Fewer Conditions

Pressure 29.89 in
Visibility 4.0 miles
Clouds Scattered Clouds 1500 ft
Mostly Cloudy 6500 ft
Overcast 8000 ft
Heat Index 85 °F
Dew Point 70 °F
Humidity 68%
Rainfall 0.49 in
Snow Depth Not available.
UV 2 out of 12
Pollen 3.50 out of 12
Ozone Good
PM2.5 Good
Flu Activity Not available.
METAR KDUH 021954Z AUTO 00000KT 4SM -RA SCT015 BKN065 OVC080 23/17 A2989 RMK AO2

More Conditions Fewer Conditions

10-Day Weather Forecast

Almanac

Astronomy

Sep. 02, 2014 Rise Set
Actual Time 7:01 AM EDT 8:06 PM EDT
Civil Twilight 6:33 AM EDT 8:35 PM EDT
Nautical Twilight 5:59 AM EDT 9:09 PM EDT
Astronomical Twilight 5:23 AM EDT 9:45 PM EDT
Moon 2:51 PM EDT 12:02 AM EDT
Length of Visible Light 14h 02m
Length of Day
13h 05m
Tomorrow will be 2m 42s shorter.
First Quarter, 54% of the Moon is Illuminated
Today
First Quarter
Sep 8
Full
Sep 15
Last Quarter
Sep 24
New
Oct 1
First Quarter

Today's Extremes

State Highs State Lows

Community

WunderPhotos

Upload Photos

1,749,752 photos uploaded!

WunderBlogs® & News

By Dr. Jeff Masters
Director of Meteorology, Weather Underground
By Kari Strenfel
Meteorologist, Weather Underground
By Christopher C. Burt
Weather Historian, Weather Underground
September 2, 2014
September 2, 2014
September 2, 2014

Nearby

Air Quality

  Air Quality AQ Index Pollutant
Yesterday Good
PM2.5
Yesterday Good
OZONE
Current Good
OZONE
Current Good
PM2.5
Tuesday Good
OZONE
Tuesday Good
PM2.5
Wednesday Moderate
PM2.5
Wednesday Good
OZONE
Thursday Moderate
PM2.5
Thursday Good
OZONE
Friday Moderate
PM2.5
Friday Good
OZONE
Saturday Good
OZONE
Saturday Good
PM2.5
Sunday Good
OZONE
Sunday Good
PM2.5

Snow Depth

Station Depth Elevation
No new snow has been reported.

Earthquake Activity

City Distance Mag. Time & Date
No recent earthquake activity has been reported nearby.
Minimum magnitude displayed is 2.5.

Coastal Water Temperatures

Place Temperature
Marblehead, OH 73.9 °F

Nearby Weather Stations